KDNV/DNV METAR and TAF weather

Enter ICAO airport designator
Station Type Date Time Source
KDNV METAR 2020/10/20 17:15 UTC NOAA

KDNV 201715Z AUTO 07007KT 10SM OVC060 12/06 A3021 RMK AO2 T01200064


Station Type Date Time Source
KDNV Decoded METAR 2020/10/20 17:15 UTC NOAA

Danville, Vermilion County Airport, IL, United States (KDNV) 40-11-58N 087-35-44W
Oct 20, 2020 - 01:15 PM EDT / 2020.10.20 1715 UTC
Wind: from the ENE (070 degrees) at 8 MPH (7 KT):0
Visibility: 10 mile(s):0
Sky conditions: overcast
Temperature: 53.6 F (12.0 C)
Dew Point: 43.5 F (6.4 C)
Relative Humidity: 68%
Pressure (altimeter): 30.21 in. Hg (1023 hPa)
ob: KDNV 201715Z AUTO 07007KT 10SM OVC060 12/06 A3021 RMK AO2 T01200064
cycle: 17

Station Type Date Time Source
KDNV TAF UTC NOAA

Error!

Example: see airport list